Airfield :







YOU CAN JOIN US ON...

 
LOGIN :

Register | Disclaimer

   EN    FR    IT 

 









Legend :    VFR   Marginal VFR   IFR   Intensive IFR   Very Intensive IFR
Visi :
Ceiling :
>= 8 km
>= 3000ft
5 to 8 km
1000 to 3000 ft
1500m to 5 km
500 to 1000 ft
800 to 1500m
200 to 500 ft
< 800m
< 200 ft
Symbols :   Thunderstorms  Fog  Heavy snow  Heavy precipitations  Wind > 20 kt






- Airport Elevation : 1166 ft


KMPV - Edward F Knapp State

CURRENT METAR :
  • 281259Z AUTO 33004KT 10SM BKN005 BKN011 OVC032 14/12 A2987 RMK AO2 CIG 004V008 T01440122

EXPIRED METARs :
  • 281251Z AUTO 32004KT 10SM SCT005 BKN012 OVC032 14/12 A2987 RMK AO2 SLP116 T01440122
  • 281243Z AUTO 31004KT 10SM SCT005 BKN012 OVC032 14/13 A2987 RMK AO2 T01440128
  • 281151Z AUTO 32005KT 10SM SCT011 BKN014 OVC047 14/13 A2986 RMK AO2 RAB01E17 SLP113 P0000 60000 70001 T01390128 10150 20139 51012
  • 281109Z AUTO 00000KT 10SM -RA BKN008 OVC037 14/13 A2986 RMK AO2 RAB01 P0000 T01440128
  • 281051Z AUTO 00000KT 10SM SCT007 OVC033 14/13 A2985 RMK AO2 SLP108 T01440128
  • 281024Z AUTO 00000KT 10SM SCT006 OVC029 14/13 A2985 RMK AO2 T01390128

TAF KMPV
Valid from the 28 at 12:00 until the 29 at 12:00 UTC


281128Z 2812/2912 VRB03KT P6SM SCT007 BKN045
TEMPO 2812/2813 BKN007
FM281500 34005KT P6SM BKN016
FM281700 33007KT P6SM BKN035
FM281800 32008KT P6SM SCT150
FM290300 00000KT P6SM FEW150
KZBW FIR / North America



MET'MAP, your aeronautical weather chart ! - Copyright ORBIFLY December 2007 - Disclaimer

ORBIFLY MET'MAP TEAM :

Programming & Development : Alexandra Zaïnal
Concept & original design : Baudouin d'Aumeries
Assistance for programming : Marc-Olivier Méhu
Technical & hardware support : Manuel Goepfert

Contact : metmap@orbifly.com




SOURCES & CREDITS :

   NOAA